Time;durP1;ratioP1;P1;durP2;ratioP2;P2;SDS_P1;SDS_P2;PMS_P1;PMS_P2;Temp;Humidity;BMP_temperature;BMP_pressure;BME280_temperature;BME280_humidity;BME280_pressure;Samples;Min_cycle;Max_cycle;Signal;HPM_P1;HPM_P2
2021/12/23 00:01:32;;;;;;;;;;;;;;;3.32;67.91;99953.44;5050747;28;19932;-60
2021/12/23 00:03:58;;;;;;;;;;;;;;;3.30;68.13;99931.81;5050574;28;20018;-60
2021/12/23 00:06:25;;;;;;;;;;;;;;;3.30;68.51;99937.88;5050857;28;20506;-59
2021/12/23 00:08:51;;;;;;;;;;;;;;;3.29;66.99;99928.34;5051112;28;19930;-58
2021/12/23 00:11:18;;;;;;;;;;;;;;;3.28;66.60;99918.81;5050593;28;20277;-59
2021/12/23 00:13:51;;;;;;;;;;;;;;;3.26;65.93;99916.25;5050679;28;19982;-59
2021/12/23 00:16:29;;;;;;;;;;;;;;;3.24;65.17;99922.38;5050758;28;19971;-60
2021/12/23 00:19:02;;;;;;;;;;;;;;;3.22;65.63;99916.38;5050899;28;20443;-59
2021/12/23 00:24:14;;;;;;;;;;;;;;;3.16;64.37;99901.78;5050763;28;19921;-60
2021/12/23 00:26:40;;;;;;;;;;;;;;;3.13;65.88;99896.63;5050589;28;19946;-58
2021/12/23 00:29:07;;;;;;;;;;;;;;;3.11;66.14;99896.66;5050210;28;19992;-62
2021/12/23 00:31:34;;;;;;;;;;;;;;;3.12;66.61;99888.00;5050393;28;20327;-59
2021/12/23 00:34:00;;;;;;;;;;;;;;;3.13;67.51;99878.44;5053267;28;19974;-59
2021/12/23 00:36:29;;;;;;;;;;;;;;;3.16;67.46;99880.97;5054296;28;19924;-60
2021/12/23 00:38:56;;;;;;;;;;;;;;;3.17;65.49;99882.66;5054260;28;19924;-59
2021/12/23 00:41:28;;;;;;;;;;;;;;;3.17;63.29;99887.88;5053992;28;19967;-61
2021/12/23 00:43:54;;;;;;;;;;;;;;;3.15;61.18;99892.28;5054683;28;19925;-60
2021/12/23 00:46:20;;;;;;;;;;;;;;;3.11;58.89;99890.63;5054320;28;19982;-58
2021/12/23 00:48:47;;;;;;;;;;;;;;;3.06;59.07;99876.88;5054245;28;19986;-62
2021/12/23 00:51:14;;;;;;;;;;;;;;;3.02;60.93;99880.44;5053774;28;19971;-60
2021/12/23 00:53:41;;;;;;;;;;;;;;;2.98;63.02;99861.44;5052835;28;19921;-58
2021/12/23 00:56:10;;;;;;;;;;;;;;;2.96;64.37;99853.69;5053866;28;19920;-61
2021/12/23 00:58:37;;;;;;;;;;;;;;;2.96;64.82;99851.06;5052870;28;19920;-59
2021/12/23 01:01:04;;;;;;;;;;;;;;;2.97;65.87;99838.94;5053891;28;19920;-60
2021/12/23 01:03:31;;;;;;;;;;;;;;;3.00;66.50;99836.28;5053736;28;20369;-59
2021/12/23 01:05:58;;;;;;;;;;;;;;;3.05;66.61;99830.94;5053691;28;20371;-60
2021/12/23 01:08:25;;;;;;;;;;;;;;;3.10;66.90;99827.34;5053794;28;19920;-59
2021/12/23 01:10:55;;;;;;;;;;;;;;;3.15;67.34;99837.66;5053391;28;20315;-58
2021/12/23 01:13:26;;;;;;;;;;;;;;;3.19;66.07;99830.59;5052584;28;20421;-61
2021/12/23 01:16:24;;;;;;;;;;;;;;;3.21;62.04;99836.63;5052514;28;19921;-59
2021/12/23 01:18:44;;;;;;;;;;;;;;;3.19;57.76;99847.09;5053433;28;19921;-60
2021/12/23 01:21:17;;;;;;;;;;;;;;;3.17;60.63;99845.41;5053302;28;19966;-59
2021/12/23 01:23:52;;;;;;;;;;;;;;;3.14;62.28;99838.50;5052494;28;19975;-59
2021/12/23 01:26:21;;;;;;;;;;;;;;;3.09;64.04;99830.84;5052267;28;19927;-60
2021/12/23 01:28:50;;;;;;;;;;;;;;;3.07;63.54;99830.00;5052179;28;19921;-58
2021/12/23 01:31:17;;;;;;;;;;;;;;;3.07;64.42;99821.38;5053094;28;19935;-59
2021/12/23 01:33:44;;;;;;;;;;;;;;;3.06;64.96;99828.31;5053180;28;19928;-59
2021/12/23 01:36:11;;;;;;;;;;;;;;;3.07;64.57;99826.56;5053413;28;19921;-60
2021/12/23 01:38:37;;;;;;;;;;;;;;;3.08;64.69;99823.06;5053175;28;19975;-60
2021/12/23 01:41:04;;;;;;;;;;;;;;;3.08;65.49;99820.47;5053127;28;19975;-58
2021/12/23 01:43:30;;;;;;;;;;;;;;;3.10;65.60;99803.09;5052975;28;20274;-60
2021/12/23 01:45:57;;;;;;;;;;;;;;;3.11;66.27;99791.78;5052426;28;19928;-59
2021/12/23 01:48:23;;;;;;;;;;;;;;;3.15;66.30;99792.56;5053100;28;19921;-58
2021/12/23 01:50:50;;;;;;;;;;;;;;;3.17;67.03;99791.63;5052848;28;20280;-58
2021/12/23 01:53:17;;;;;;;;;;;;;;;3.20;67.31;99781.16;5052958;28;19924;-61
2021/12/23 01:55:43;;;;;;;;;;;;;;;3.24;67.34;99785.38;5053019;28;19929;-60
2021/12/23 01:58:11;;;;;;;;;;;;;;;3.30;67.75;99786.97;5051586;28;19995;-59
2021/12/23 02:00:39;;;;;;;;;;;;;;;3.35;68.11;99781.63;5051232;28;19928;-59
2021/12/23 02:03:05;;;;;;;;;;;;;;;3.40;67.92;99774.53;5052921;28;19956;-58
2021/12/23 02:05:32;;;;;;;;;;;;;;;3.45;68.16;99753.63;5052824;28;19971;-59
2021/12/23 02:08:07;;;;;;;;;;;;;;;3.49;67.67;99739.63;5052662;28;19928;-62
2021/12/23 02:10:34;;;;;;;;;;;;;;;3.51;67.77;99733.47;5052377;28;19924;-59
2021/12/23 02:13:00;;;;;;;;;;;;;;;3.56;67.95;99740.31;5052638;28;19921;-60
2021/12/23 02:15:27;;;;;;;;;;;;;;;3.59;68.26;99748.03;5052429;28;19928;-60
2021/12/23 02:17:54;;;;;;;;;;;;;;;3.62;68.30;99755.72;5052628;28;19924;-59
2021/12/23 02:20:22;;;;;;;;;;;;;;;3.67;67.86;99759.09;5052178;28;20332;-59
2021/12/23 02:22:49;;;;;;;;;;;;;;;3.70;68.42;99751.16;5052235;28;19921;-60
2021/12/23 02:25:17;;;;;;;;;;;;;;;3.74;67.90;99752.78;5052290;28;19921;-59
2021/12/23 02:27:44;;;;;;;;;;;;;;;3.77;67.95;99739.69;5052280;28;19920;-60
2021/12/23 02:30:15;;;;;;;;;;;;;;;3.80;68.20;99735.28;5052221;28;19925;-58
2021/12/23 02:32:42;;;;;;;;;;;;;;;3.82;68.05;99734.34;5051078;28;19924;-59
2021/12/23 02:35:10;;;;;;;;;;;;;;;3.85;68.52;99739.44;5052178;28;19924;-60
2021/12/23 02:37:37;;;;;;;;;;;;;;;3.88;68.39;99756.72;5050872;28;19928;-59
2021/12/23 02:40:04;;;;;;;;;;;;;;;3.90;68.33;99753.19;5051790;28;19925;-59
2021/12/23 02:42:30;;;;;;;;;;;;;;;3.93;68.36;99754.88;5051982;28;19928;-59
2021/12/23 02:44:58;;;;;;;;;;;;;;;3.95;68.14;99747.00;5052150;28;20080;-59
2021/12/23 02:47:24;;;;;;;;;;;;;;;3.96;68.31;99739.13;5052228;28;19928;-58
2021/12/23 02:49:51;;;;;;;;;;;;;;;3.98;68.04;99721.72;5051763;28;19946;-60
2021/12/23 02:52:17;;;;;;;;;;;;;;;4.00;68.17;99716.47;5051930;28;19925;-59
2021/12/23 02:54:53;;;;;;;;;;;;;;;4.01;68.27;99710.34;5051688;28;19929;-61
2021/12/23 02:57:19;;;;;;;;;;;;;;;4.02;68.13;99709.44;5050903;28;19924;-59
2021/12/23 02:59:46;;;;;;;;;;;;;;;4.02;67.90;99705.09;5051537;28;19920;-58
2021/12/23 03:02:12;;;;;;;;;;;;;;;4.03;68.08;99699.00;5051600;28;19925;-61
2021/12/23 03:04:39;;;;;;;;;;;;;;;4.04;68.15;99694.66;5051588;28;19921;-58
2021/12/23 03:07:05;;;;;;;;;;;;;;;4.04;68.23;99685.06;5051520;28;20365;-61
2021/12/23 03:09:31;;;;;;;;;;;;;;;4.06;67.90;99687.63;5051177;28;19967;-58
2021/12/23 03:11:58;;;;;;;;;;;;;;;4.07;67.86;99685.88;5051776;28;19920;-58
2021/12/23 03:14:24;;;;;;;;;;;;;;;4.07;68.00;99678.91;5051389;28;19974;-61
2021/12/23 03:16:51;;;;;;;;;;;;;;;4.07;68.13;99673.69;5051454;28;19925;-59
2021/12/23 03:19:17;;;;;;;;;;;;;;;4.08;68.06;99662.41;5051369;28;19928;-60
2021/12/23 03:21:44;;;;;;;;;;;;;;;4.09;67.80;99669.31;5051277;28;19974;-59
2021/12/23 03:24:12;;;;;;;;;;;;;;;4.09;67.71;99661.47;5050047;28;19931;-61
2021/12/23 03:26:38;;;;;;;;;;;;;;;4.09;67.90;99651.06;5051198;28;19932;-59
2021/12/23 03:29:07;;;;;;;;;;;;;;;4.10;68.09;99649.28;5051240;28;19921;-61
2021/12/23 03:31:35;;;;;;;;;;;;;;;4.10;67.87;99625.84;5051231;28;19928;-59
2021/12/23 03:34:01;;;;;;;;;;;;;;;4.09;67.89;99625.00;5051014;28;20096;-59
2021/12/23 03:36:28;;;;;;;;;;;;;;;4.08;67.97;99622.47;5050986;28;19943;-59
2021/12/23 03:38:54;;;;;;;;;;;;;;;4.09;67.93;99619.81;5051013;28;20332;-59
2021/12/23 03:41:21;;;;;;;;;;;;;;;4.08;67.73;99606.81;5051149;28;19920;-62
2021/12/23 03:43:47;;;;;;;;;;;;;;;4.08;68.13;99612.91;5051262;28;19928;-60
2021/12/23 03:46:14;;;;;;;;;;;;;;;4.09;67.85;99605.91;5050909;28;19985;-60
2021/12/23 03:48:40;;;;;;;;;;;;;;;4.09;67.97;99622.41;5050874;28;19972;-59
2021/12/23 03:51:07;;;;;;;;;;;;;;;4.11;67.66;99651.03;5050845;28;19955;-59
2021/12/23 03:53:33;;;;;;;;;;;;;;;4.10;66.70;99651.91;5050798;28;19978;-61
2021/12/23 03:56:00;;;;;;;;;;;;;;;4.06;66.23;99651.16;5050951;28;19978;-60
2021/12/23 03:58:26;;;;;;;;;;;;;;;4.04;66.33;99645.16;5050759;28;19982;-60
2021/12/23 04:00:53;;;;;;;;;;;;;;;4.00;66.28;99610.53;5050515;28;20281;-59
2021/12/23 04:03:20;;;;;;;;;;;;;;;3.97;66.67;99599.34;5050685;28;19921;-60
2021/12/23 04:05:46;;;;;;;;;;;;;;;3.94;67.01;99600.31;5050634;28;20369;-59
2021/12/23 04:08:13;;;;;;;;;;;;;;;3.91;67.08;99588.25;5052160;28;19982;-59
2021/12/23 04:10:39;;;;;;;;;;;;;;;3.91;67.37;99562.19;5054877;28;19970;-60
2021/12/23 04:13:06;;;;;;;;;;;;;;;3.93;67.59;99561.28;5054969;28;19925;-61
2021/12/23 04:15:32;;;;;;;;;;;;;;;3.91;67.70;99554.38;5054936;28;19921;-59
2021/12/23 04:17:59;;;;;;;;;;;;;;;3.94;67.84;99552.56;5054676;28;19982;-59
2021/12/23 04:20:32;;;;;;;;;;;;;;;3.95;67.60;99544.72;5054484;28;19922;-59
2021/12/23 04:22:59;;;;;;;;;;;;;;;3.95;67.67;99565.56;5053623;28;19947;-58
2021/12/23 04:25:26;;;;;;;;;;;;;;;3.94;65.98;99576.88;5054563;28;20427;-60
2021/12/23 04:27:54;;;;;;;;;;;;;;;3.90;62.20;99586.53;5054444;28;19967;-59
2021/12/23 04:30:21;;;;;;;;;;;;;;;3.86;62.20;99581.47;5054398;28;19928;-59
2021/12/23 04:32:48;;;;;;;;;;;;;;;3.76;59.54;99589.59;5054410;28;19925;-59
2021/12/23 04:35:15;;;;;;;;;;;;;;;3.69;61.76;99569.84;5054811;28;19925;-59
2021/12/23 04:37:41;;;;;;;;;;;;;;;3.61;63.85;99541.47;5054179;28;20327;-59
2021/12/23 04:40:10;;;;;;;;;;;;;;;3.56;64.66;99529.47;5054222;28;19928;-59
2021/12/23 04:42:37;;;;;;;;;;;;;;;3.51;65.35;99507.06;5054408;28;19933;-59
2021/12/23 04:45:04;;;;;;;;;;;;;;;3.50;65.18;99509.72;5054300;28;19928;-59
2021/12/23 04:47:30;;;;;;;;;;;;;;;3.47;60.99;99504.59;5054230;28;19931;-61
2021/12/23 04:49:57;;;;;;;;;;;;;;;3.42;59.61;99502.16;5053959;28;19924;-60
2021/12/23 04:52:23;;;;;;;;;;;;;;;3.36;58.81;99505.78;5054059;28;19978;-59
2021/12/23 04:54:50;;;;;;;;;;;;;;;3.29;60.20;99519.03;5054193;28;19924;-61
2021/12/23 04:57:16;;;;;;;;;;;;;;;3.22;58.56;99523.59;5053890;28;19924;-59
2021/12/23 04:59:43;;;;;;;;;;;;;;;3.15;59.60;99512.53;5053681;28;19924;-61
2021/12/23 05:02:09;;;;;;;;;;;;;;;3.08;57.61;99530.06;5054019;28;19921;-60
2021/12/23 05:04:36;;;;;;;;;;;;;;;3.02;57.83;99526.78;5053721;28;20372;-59
2021/12/23 05:07:02;;;;;;;;;;;;;;;2.98;60.03;99523.41;5052727;28;20319;-58
2021/12/23 05:09:29;;;;;;;;;;;;;;;2.94;59.08;99521.78;5053721;28;19924;-60
2021/12/23 05:11:55;;;;;;;;;;;;;;;2.90;60.33;99528.84;5053684;28;19920;-60
2021/12/23 05:14:22;;;;;;;;;;;;;;;2.89;60.69;99516.75;5053479;28;19975;-59
2021/12/23 05:16:48;;;;;;;;;;;;;;;2.89;62.96;99508.09;5053845;28;19925;-59
2021/12/23 05:19:15;;;;;;;;;;;;;;;2.88;63.13;99514.19;5052513;28;20380;-59
2021/12/23 05:21:42;;;;;;;;;;;;;;;2.88;62.99;99499.44;5053490;28;19921;-59
2021/12/23 05:24:08;;;;;;;;;;;;;;;2.90;63.60;99486.38;5053558;28;19935;-59
2021/12/23 05:26:35;;;;;;;;;;;;;;;2.92;64.14;99482.00;5053433;28;19978;-59
2021/12/23 05:29:02;;;;;;;;;;;;;;;2.94;64.82;99481.06;5053176;28;19975;-60
2021/12/23 05:31:30;;;;;;;;;;;;;;;2.97;64.76;99473.16;5053449;28;20229;-60
2021/12/23 05:33:56;;;;;;;;;;;;;;;2.99;64.84;99455.75;5053442;28;19920;-59
2021/12/23 05:36:22;;;;;;;;;;;;;;;3.02;65.33;99453.97;5052116;28;19920;-59
2021/12/23 05:38:49;;;;;;;;;;;;;;;3.05;65.75;99462.53;5053277;28;19925;-60
2021/12/23 05:41:15;;;;;;;;;;;;;;;3.05;61.58;99469.47;5052982;28;19932;-60
2021/12/23 05:43:42;;;;;;;;;;;;;;;3.06;61.59;99472.03;5053013;28;19924;-60
2021/12/23 05:46:08;;;;;;;;;;;;;;;3.03;59.57;99466.91;5053248;28;19924;-59
2021/12/23 05:48:35;;;;;;;;;;;;;;;2.99;61.13;99447.97;5053269;28;19931;-60
2021/12/23 05:51:01;;;;;;;;;;;;;;;2.98;62.75;99467.06;5052864;28;19925;-60
2021/12/23 05:53:28;;;;;;;;;;;;;;;2.95;61.16;99472.34;5052959;28;20589;-59
2021/12/23 05:55:54;;;;;;;;;;;;;;;2.95;62.53;99476.72;5052764;28;19921;-61
2021/12/23 05:58:20;;;;;;;;;;;;;;;2.93;63.73;99463.75;5052649;28;19924;-59
2021/12/23 06:00:47;;;;;;;;;;;;;;;2.94;64.97;99468.06;5053063;28;19925;-59
2021/12/23 06:03:13;;;;;;;;;;;;;;;2.96;65.70;99455.00;5052862;28;19921;-59
2021/12/23 06:05:40;;;;;;;;;;;;;;;2.99;66.26;99436.72;5052825;28;20014;-60
2021/12/23 06:08:06;;;;;;;;;;;;;;;3.03;66.55;99427.91;5052981;28;19928;-59
2021/12/23 06:10:33;;;;;;;;;;;;;;;3.10;66.85;99437.22;5051182;28;19924;-59
2021/12/23 06:12:59;;;;;;;;;;;;;;;3.17;67.23;99443.06;5052509;28;20376;-59
2021/12/23 06:15:26;;;;;;;;;;;;;;;3.22;67.15;99443.78;5052513;28;19924;-60
2021/12/23 06:17:52;;;;;;;;;;;;;;;3.28;65.99;99452.31;5052465;28;19921;-59
2021/12/23 06:20:19;;;;;;;;;;;;;;;3.30;65.39;99445.28;5052195;28;19979;-60
2021/12/23 06:22:45;;;;;;;;;;;;;;;3.31;64.92;99450.47;5052528;28;19966;-59
2021/12/23 06:25:12;;;;;;;;;;;;;;;3.32;65.83;99453.91;5052361;28;20457;-60
2021/12/23 06:27:39;;;;;;;;;;;;;;;3.33;66.12;99469.44;5050956;28;19932;-61
2021/12/23 06:30:19;;;;;;;;;;;;;;;3.34;66.51;99476.38;5052084;28;20343;-59
2021/12/23 06:32:47;;;;;;;;;;;;;;;3.36;66.94;99489.31;5052192;28;20373;-59
2021/12/23 06:35:14;;;;;;;;;;;;;;;3.39;67.18;99486.63;5052376;28;19932;-60
2021/12/23 06:37:40;;;;;;;;;;;;;;;3.42;67.37;99480.47;5052169;28;19982;-59
2021/12/23 06:40:08;;;;;;;;;;;;;;;3.47;68.04;99482.03;5052127;28;19947;-62
2021/12/23 06:42:34;;;;;;;;;;;;;;;3.52;68.08;99472.31;5050793;28;19924;-58
2021/12/23 06:45:01;;;;;;;;;;;;;;;3.57;67.90;99473.91;5052225;28;19920;-63
2021/12/23 06:47:27;;;;;;;;;;;;;;;3.61;67.71;99479.00;5052126;28;19928;-61
2021/12/23 06:49:54;;;;;;;;;;;;;;;3.63;67.96;99484.97;5050395;28;19982;-59
2021/12/23 06:52:20;;;;;;;;;;;;;;;3.66;68.17;99486.63;5051747;28;19927;-59
2021/12/23 06:54:52;;;;;;;;;;;;;;;3.70;68.08;99492.59;5051880;28;19921;-59
2021/12/23 06:57:19;;;;;;;;;;;;;;;3.72;67.90;99481.25;5050727;28;20309;-60
2021/12/23 06:59:46;;;;;;;;;;;;;;;3.75;67.08;99477.69;5051562;28;19933;-60
2021/12/23 07:02:12;;;;;;;;;;;;;;;3.74;66.30;99469.00;5051560;28;19921;-60
2021/12/23 07:04:42;;;;;;;;;;;;;;;3.72;65.39;99462.16;5051426;28;20317;-61
2021/12/23 07:07:12;;;;;;;;;;;;;;;3.69;65.47;99463.13;5051188;28;19990;-59
2021/12/23 07:09:40;;;;;;;;;;;;;;;3.65;65.11;99464.13;5051393;28;20008;-61
2021/12/23 07:12:08;;;;;;;;;;;;;;;3.61;65.16;99452.09;5051438;28;19921;-59
2021/12/23 07:14:36;;;;;;;;;;;;;;;3.56;62.90;99451.41;5050269;28;19924;-59
2021/12/23 07:17:03;;;;;;;;;;;;;;;3.49;62.90;99451.63;5051603;28;20316;-58
2021/12/23 07:19:29;;;;;;;;;;;;;;;3.44;63.39;99450.91;5049892;28;20692;-59
2021/12/23 07:21:56;;;;;;;;;;;;;;;3.38;62.75;99438.09;5050174;28;20655;-60
2021/12/23 07:24:23;;;;;;;;;;;;;;;3.34;62.92;99436.50;5051509;28;19921;-59
2021/12/23 07:26:50;;;;;;;;;;;;;;;3.28;62.90;99437.53;5051138;28;19991;-60
2021/12/23 07:29:16;;;;;;;;;;;;;;;3.24;63.22;99436.78;5051180;28;19924;-60
2021/12/23 07:31:43;;;;;;;;;;;;;;;3.20;63.10;99427.38;5049780;28;19921;-59
2021/12/23 07:34:09;;;;;;;;;;;;;;;3.18;63.75;99423.13;5051059;28;19921;-59
2021/12/23 07:36:36;;;;;;;;;;;;;;;3.14;62.66;99417.16;5051440;28;19924;-60
2021/12/23 07:39:06;;;;;;;;;;;;;;;3.10;61.73;99410.38;5051391;28;19924;-59
2021/12/23 07:41:53;;;;;;;;;;;;;;;3.08;62.50;99407.81;5050096;28;20023;-60
2021/12/23 07:44:34;;;;;;;;;;;;;;;3.05;63.10;99412.25;5050725;28;19921;-58
2021/12/23 07:47:01;;;;;;;;;;;;;;;3.02;61.92;99404.56;5050819;28;19967;-60
2021/12/23 07:49:27;;;;;;;;;;;;;;;3.00;63.48;99397.66;5050817;28;19921;-59
2021/12/23 07:51:54;;;;;;;;;;;;;;;2.99;63.67;99382.94;5050103;28;19920;-58
2021/12/23 07:54:21;;;;;;;;;;;;;;;2.98;64.42;99373.47;5050847;28;19921;-59
2021/12/23 07:56:47;;;;;;;;;;;;;;;2.95;61.54;99376.16;5050835;28;20296;-59
2021/12/23 07:59:14;;;;;;;;;;;;;;;2.93;61.76;99375.34;5050736;28;19929;-59
2021/12/23 08:01:40;;;;;;;;;;;;;;;2.92;62.39;99391.00;5050763;28;19928;-59
2021/12/23 08:04:07;;;;;;;;;;;;;;;2.90;61.12;99392.78;5050914;28;19932;-60
2021/12/23 08:06:33;;;;;;;;;;;;;;;2.85;60.65;99380.78;5050936;28;19920;-59
2021/12/23 08:09:00;;;;;;;;;;;;;;;2.84;60.91;99370.44;5050854;28;19920;-59
2021/12/23 08:11:26;;;;;;;;;;;;;;;2.83;60.75;99360.94;5050386;28;19921;-60
2021/12/23 08:13:53;;;;;;;;;;;;;;;2.82;60.63;99365.28;5050582;28;19931;-60
2021/12/23 08:16:19;;;;;;;;;;;;;;;2.80;60.84;99354.09;5050790;28;19932;-61
2021/12/23 08:18:46;;;;;;;;;;;;;;;2.80;61.28;99356.69;5050598;28;19924;-59
2021/12/23 08:21:12;;;;;;;;;;;;;;;2.80;61.00;99355.84;5050287;28;19921;-60
2021/12/23 08:23:39;;;;;;;;;;;;;;;2.77;59.57;99350.75;5050462;28;19929;-59
2021/12/23 08:26:11;;;;;;;;;;;;;;;2.77;59.94;99342.94;5050622;28;19986;-61
2021/12/23 08:28:37;;;;;;;;;;;;;;;2.73;60.53;99340.44;5049544;28;19974;-60
2021/12/23 08:31:04;;;;;;;;;;;;;;;2.73;61.34;99331.81;5050409;28;19925;-61
2021/12/23 08:33:30;;;;;;;;;;;;;;;2.71;59.97;99331.84;5050546;28;19964;-60
2021/12/23 08:35:57;;;;;;;;;;;;;;;2.71;60.33;99325.78;5050423;28;20332;-58
2021/12/23 08:38:23;;;;;;;;;;;;;;;2.68;60.10;99341.47;5050168;28;19921;-60
2021/12/23 08:40:50;;;;;;;;;;;;;;;2.66;60.66;99328.56;5050302;28;20296;-59
2021/12/23 08:43:17;;;;;;;;;;;;;;;2.67;61.64;99319.84;5050333;28;19925;-59
2021/12/23 08:45:43;;;;;;;;;;;;;;;2.64;60.18;99317.34;5050499;28;19920;-60
2021/12/23 08:48:09;;;;;;;;;;;;;;;2.65;61.57;99316.44;5050315;28;19924;-59
2021/12/23 08:50:36;;;;;;;;;;;;;;;2.64;61.40;99313.88;5050380;28;19921;-59
2021/12/23 08:53:03;;;;;;;;;;;;;;;2.63;61.55;99310.44;5050259;28;19967;-60
2021/12/23 08:55:31;;;;;;;;;;;;;;;2.59;60.93;99317.47;5053653;28;20373;-59
2021/12/23 08:57:58;;;;;;;;;;;;;;;2.61;62.06;99320.03;5052961;28;19920;-60
2021/12/23 09:00:26;;;;;;;;;;;;;;;2.58;61.38;99314.94;5053590;28;19974;-59
2021/12/23 09:02:52;;;;;;;;;;;;;;;2.55;61.50;99312.44;5052650;28;19970;-60
2021/12/23 09:05:20;;;;;;;;;;;;;;;2.55;60.97;99302.88;5053877;28;20426;-59
2021/12/23 09:07:47;;;;;;;;;;;;;;;2.57;62.23;99305.41;5052523;28;19925;-62
2021/12/23 09:10:14;;;;;;;;;;;;;;;2.56;62.50;99317.59;5053743;28;19921;-59
2021/12/23 09:12:40;;;;;;;;;;;;;;;2.56;62.37;99311.53;5053934;28;19975;-62
2021/12/23 09:15:08;;;;;;;;;;;;;;;2.56;62.71;99306.31;5053963;28;19928;-60
2021/12/23 09:17:34;;;;;;;;;;;;;;;2.54;61.72;99310.75;5053824;28;20404;-59
2021/12/23 09:20:02;;;;;;;;;;;;;;;2.55;62.22;99302.03;5053091;28;20376;-60
2021/12/23 09:22:28;;;;;;;;;;;;;;;2.55;62.26;99305.47;5053529;28;20531;-59
2021/12/23 09:24:57;;;;;;;;;;;;;;;2.54;62.12;99302.94;5053699;28;20334;-59
2021/12/23 09:27:35;;;;;;;;;;;;;;;2.53;63.05;99306.41;5054040;28;20359;-60
2021/12/23 09:32:52;;;;;;;;;;;;;;;2.52;62.51;99309.91;5053366;28;19921;-59
2021/12/23 09:35:38;;;;;;;;;;;;;;;2.51;63.49;99303.88;5052504;28;19921;-61
2021/12/23 09:38:05;;;;;;;;;;;;;;;2.48;63.02;99293.59;5053487;28;19920;-60
2021/12/23 09:40:33;;;;;;;;;;;;;;;2.47;63.86;99297.91;5053069;28;20270;-58
2021/12/23 09:43:01;;;;;;;;;;;;;;;2.48;64.70;99294.41;5053199;28;19938;-59
2021/12/23 09:45:28;;;;;;;;;;;;;;;2.45;64.69;99288.47;5053637;28;19932;-59
2021/12/23 09:47:56;;;;;;;;;;;;;;;2.44;65.20;99287.63;5053417;28;19921;-59
2021/12/23 09:50:24;;;;;;;;;;;;;;;2.43;65.77;99296.31;5051588;28;19971;-59
2021/12/23 09:52:52;;;;;;;;;;;;;;;2.41;65.33;99286.88;5052891;28;19929;-60
2021/12/23 09:55:20;;;;;;;;;;;;;;;2.40;66.23;99286.03;5052967;28;20533;-59
2021/12/23 09:57:47;;;;;;;;;;;;;;;2.38;66.28;99286.97;5052838;28;20426;-59
2021/12/23 10:00:15;;;;;;;;;;;;;;;2.37;66.36;99280.06;5052568;28;20422;-60
2021/12/23 10:02:42;;;;;;;;;;;;;;;2.33;65.87;99280.16;5051630;28;19925;-62
2021/12/23 10:05:15;;;;;;;;;;;;;;;2.35;66.53;99274.91;5052507;28;19925;-59
2021/12/23 10:07:44;;;;;;;;;;;;;;;2.32;66.65;99268.06;5051334;28;19931;-64
2021/12/23 10:10:22;;;;;;;;;;;;;;;2.33;67.09;99253.34;5052390;28;20518;-59
2021/12/23 10:27:33;;;;;;;;;;;;;;;2.27;67.51;99225.81;5052435;28;19925;-60
2021/12/23 10:32:54;;;;;;;;;;;;;;;2.27;67.54;99202.44;5052555;28;19974;-59
2021/12/23 10:38:22;;;;;;;;;;;;;;;2.25;68.23;99180.88;5052407;28;19920;-60
2021/12/23 10:40:50;;;;;;;;;;;;;;;2.26;68.62;99182.56;5051893;28;19921;-59
2021/12/23 10:43:30;;;;;;;;;;;;;;;2.28;68.59;99180.75;5050676;28;20303;-59
2021/12/23 10:45:59;;;;;;;;;;;;;;;2.28;68.54;99182.53;5051002;28;19925;-61
2021/12/23 10:48:28;;;;;;;;;;;;;;;2.27;68.40;99180.81;5052295;28;19967;-59
2021/12/23 10:51:00;;;;;;;;;;;;;;;2.28;68.37;99185.13;5050289;28;19974;-59
2021/12/23 10:53:57;;;;;;;;;;;;;;;2.25;67.95;99157.50;5050624;28;19924;-61
2021/12/23 10:59:17;;;;;;;;;;;;;;;2.27;68.75;99176.47;5051587;28;19925;-59
2021/12/23 11:02:02;;;;;;;;;;;;;;;2.26;68.60;99166.13;5051687;28;20692;-60
2021/12/23 11:04:35;;;;;;;;;;;;;;;2.27;68.62;99150.50;5051466;28;19929;-60
2021/12/23 11:07:14;;;;;;;;;;;;;;;2.27;68.92;99149.63;5051674;28;19920;-59
2021/12/23 11:10:14;;;;;;;;;;;;;;;2.27;68.99;99134.06;5050252;28;19924;-59
2021/12/23 11:37:53;;;;;;;;;;;;;;;2.22;69.83;99072.72;5051069;28;19921;-59
2021/12/23 11:40:49;;;;;;;;;;;;;;;2.24;70.20;99075.28;5049724;28;19924;-62
2021/12/23 11:45:44;;;;;;;;;;;;;;;2.26;70.04;99041.47;5050950;28;20635;-59
2021/12/23 11:48:11;;;;;;;;;;;;;;;2.28;70.10;99042.28;5049549;28;19924;-59
2021/12/23 11:53:47;;;;;;;;;;;;;;;2.27;70.13;99043.16;5048323;28;19921;-60
2021/12/23 11:56:14;;;;;;;;;;;;;;;2.28;70.33;99031.91;5031848;28;19921;-58
2021/12/23 11:58:43;;;;;;;;;;;;;;;2.31;70.59;99024.84;5049638;28;19929;-60
2021/12/23 12:01:13;;;;;;;;;;;;;;;2.34;70.37;98997.91;5049539;28;19920;-59
2021/12/23 12:03:51;;;;;;;;;;;;;;;2.36;70.03;98996.13;5050934;28;20027;-62
2021/12/23 12:06:19;;;;;;;;;;;;;;;2.36;70.11;99003.06;5050825;28;19971;-59
2021/12/23 12:09:09;;;;;;;;;;;;;;;2.38;70.02;98991.72;5050741;28;19971;-60
2021/12/23 12:11:36;;;;;;;;;;;;;;;2.40;69.69;98963.94;5050516;28;19928;-62
2021/12/23 12:14:03;;;;;;;;;;;;;;;2.43;69.65;98968.19;5050785;28;20412;-60
2021/12/23 12:16:36;;;;;;;;;;;;;;;2.42;69.51;98989.84;5050589;28;19921;-59
2021/12/23 12:19:04;;;;;;;;;;;;;;;2.43;69.27;98971.59;5050670;28;19952;-61
2021/12/23 12:21:35;;;;;;;;;;;;;;;2.45;69.08;98981.94;5050500;28;19921;-59
2021/12/23 12:24:15;;;;;;;;;;;;;;;2.50;69.60;98984.38;5049574;28;19925;-59
2021/12/23 12:26:52;;;;;;;;;;;;;;;2.52;69.65;98973.03;5050668;28;20456;-60
2021/12/23 12:29:19;;;;;;;;;;;;;;;2.53;69.27;98974.72;5052087;28;19928;-61
2021/12/23 12:31:47;;;;;;;;;;;;;;;2.58;69.95;98979.75;5054454;28;19932;-60
2021/12/23 12:34:13;;;;;;;;;;;;;;;2.60;69.45;98975.34;5054826;28;20015;-59
2021/12/23 12:36:43;;;;;;;;;;;;;;;2.62;69.31;98970.94;5054284;28;20385;-61
2021/12/23 12:39:09;;;;;;;;;;;;;;;2.64;69.29;98960.47;5053890;28;19932;-59
2021/12/23 12:41:38;;;;;;;;;;;;;;;2.68;69.27;98955.13;5054410;28;19920;-62
2021/12/23 12:44:07;;;;;;;;;;;;;;;2.70;69.22;98958.50;5054478;28;19924;-61
2021/12/23 12:46:41;;;;;;;;;;;;;;;2.69;69.04;98954.22;5054104;28;19928;-58
2021/12/23 12:49:11;;;;;;;;;;;;;;;2.70;68.97;98940.31;5054441;28;19924;-60
2021/12/23 12:51:39;;;;;;;;;;;;;;;2.73;69.29;98929.81;5054688;28;19928;-59
2021/12/23 12:54:08;;;;;;;;;;;;;;;2.76;69.44;98923.63;5053062;28;20365;-59
2021/12/23 12:56:35;;;;;;;;;;;;;;;2.79;69.61;98940.88;5052886;28;19924;-59
2021/12/23 12:59:06;;;;;;;;;;;;;;;2.77;69.74;98943.53;5054147;28;19924;-59
2021/12/23 13:01:35;;;;;;;;;;;;;;;2.80;69.16;98926.97;5054200;28;19927;-59
2021/12/23 13:04:02;;;;;;;;;;;;;;;2.80;69.44;98917.41;5052984;28;19966;-61
2021/12/23 13:06:38;;;;;;;;;;;;;;;2.81;69.46;98920.88;5054317;28;19928;-57
2021/12/23 13:09:06;;;;;;;;;;;;;;;2.83;69.69;98939.84;5054083;28;20042;-59
2021/12/23 13:11:35;;;;;;;;;;;;;;;2.83;69.87;98927.69;5053780;28;20446;-61
2021/12/23 13:14:04;;;;;;;;;;;;;;;2.85;70.05;98917.25;5054059;28;19955;-58
2021/12/23 13:16:30;;;;;;;;;;;;;;;2.87;70.05;98931.03;5054203;28;19925;-61
2021/12/23 13:19:15;;;;;;;;;;;;;;;2.90;70.48;98914.44;5053841;28;20368;-58
2021/12/23 13:21:43;;;;;;;;;;;;;;;2.94;70.28;98931.63;5053782;28;19994;-60
2021/12/23 13:24:10;;;;;;;;;;;;;;;2.95;70.05;98923.78;5052405;28;19920;-59
2021/12/23 13:26:37;;;;;;;;;;;;;;;2.99;69.78;98925.34;5054101;28;19924;-59
2021/12/23 13:29:06;;;;;;;;;;;;;;;3.03;70.62;98914.84;5053800;28;20069;-59
2021/12/23 13:31:35;;;;;;;;;;;;;;;3.06;69.53;98910.34;5052240;28;20438;-59
2021/12/23 13:34:12;;;;;;;;;;;;;;;3.07;69.71;98906.00;5053592;28;19932;-59
2021/12/23 13:36:41;;;;;;;;;;;;;;;3.10;70.06;98892.91;5052219;28;19970;-59
2021/12/23 13:39:09;;;;;;;;;;;;;;;3.12;69.98;98886.72;5053299;28;19920;-59
2021/12/23 13:41:40;;;;;;;;;;;;;;;3.14;69.95;98894.44;5052033;28;19924;-59
2021/12/23 13:44:20;;;;;;;;;;;;;;;3.17;69.74;98876.13;5053063;28;20016;-59
2021/12/23 13:46:55;;;;;;;;;;;;;;;3.18;69.98;98876.97;5053177;28;19932;-60
2021/12/23 13:49:32;;;;;;;;;;;;;;;3.20;69.39;98872.53;5052904;28;19924;-59
2021/12/23 13:51:59;;;;;;;;;;;;;;;3.19;69.05;98857.84;5052908;28;19970;-59
2021/12/23 13:54:36;;;;;;;;;;;;;;;3.19;69.49;98858.72;5053132;28;19920;-59
2021/12/23 13:57:07;;;;;;;;;;;;;;;3.19;69.33;98853.50;5051627;28;19920;-61
2021/12/23 13:59:34;;;;;;;;;;;;;;;3.20;69.61;98843.94;5052571;28;19978;-58
2021/12/23 14:02:03;;;;;;;;;;;;;;;3.20;69.70;98842.19;5052976;28;19920;-59
2021/12/23 14:04:29;;;;;;;;;;;;;;;3.20;69.53;98836.13;5052711;28;19925;-59